map of JLN home
JLN - Airport
Location
City:  Joplin, Missouri, United States
Name:Joplin Regional
ICAO:KJLN
IATA:JLN
FAA LID:JLN

Details
Type:Airport (Part 139 Class I)
Use:Public/Civil
Latitude:3709'11"N (37.153168)
Longitude:9429'56"W (-94.498807)
Datum:WGS 1984
Elevation:977 ft (298 m)
Variation:1.63E (WMM2015v2 magnetic declination)
-0.08 annual change
Runways:2
Longest:6501 × 150 ft (1982 × 45.5 m), paved

Time
Time Zone:UTC-6 (DST-5)
Local Time:

Weather
METAR:KJLN 041353Z 23008KT 7SM CLR 15/13 A2971 RMK AO2 SLP054 T01500133
TAF:KJLN 041120Z 0412/0512 19014KT P6SM BKN035
FM041500 23015G20KT P6SM SCT025 OVC035
FM041800 32013G18KT P6SM OVC015
FM050300 04008KT P6SM BKN035

Related Locations
Nearby:
Farthest:YAUG: 10772 mi / 17336 km
Augusta [Augusta Airport], WA, AU

Find:

   beyond  
but within

Other Information
Maps:
Delays:
NOTAMs:
Links:
Sources:

  
  • flag of United States
  • flag of Missouri
  

Airport Diagram

Airport diagram for JLN

Airport diagram PDF from FAA

Sectional Chart

Flight Planning
at skyvector.com

Satellite Image

Google Maps Satellite view

 

Copyright © 2004-2019 Karl L. Swartz. All rights reserved.
The Great Circle Mapper name and logo are trademarks of the Great Circle Mapper.
All other trademarks mentioned herein belong to their respective owners.
Please see credits for attibutions and further copyright information.

  Follow gcmap on Facebook Follow gcmap on Twitter GCmap on LinkedIn

hCard Microformat

Geo Microformat